Tropical Cyclones
[Index]
Main Index Home Page Stock Weather Photos Extreme Storms Discussion Storm News and Storm Chasing Reports Tropical Cyclones / Hurricanes / Typhoons Weather Data and Links Wild Fires / Bushfires Weather Observation Techniques Weather Picture Catalogue Tornado Pictures and Reports Stock Video Footage and DVDs for sale
Season 1974-1975 Tropical Cyclone CLARA Track Map
Season 1974-1975 Summaries: [BoM-AU] [JTWC-AU] [JTWC-SIO] [JTWC-SPAC] [JTWC-SH]
<<- Previous TC | BoM 1974-1975 Season | Next TC ->>

click for intensity scale information  Lat/long Grid: Show Hide

 Date Labels: Show Hide

Bureau of Meteorology Tropical Cyclone Data

Name: CLARA
Number: 544 / 197475_16

20 Apr 1975 01:00 UTC to 26 Apr 1975 01:00 UTC

    date/time    lat    long    hPa   cat  kts
1975-04-20 01    9.0   100.6   1003                     
1975-04-20 04    9.4   100.6   1002                     
1975-04-20 07    9.7   100.6   1000                     
1975-04-20 10   10.3   100.7    999                     
1975-04-20 13   10.6   100.8    998                     
1975-04-20 16   11.0   101.0    996                     
1975-04-20 19   11.3   101.2    995    1                
1975-04-20 22   11.7   101.4    995    1                
1975-04-21 01   12.1   101.5    994    1                
1975-04-21 04   12.5   101.7    994    1                
1975-04-21 07   12.7   102.2    993    1                
1975-04-21 10   13.2   102.5    992    1                
1975-04-21 13   13.6   102.9    991    1                
1975-04-21 16   14.0   103.3    990    1                
1975-04-21 19   14.4   103.6    989    1                
1975-04-21 22   14.8   103.8    989    1                
1975-04-22 01   15.2   104.6    988    1                
1975-04-22 04   15.6   104.8    987    1                
1975-04-22 07   16.0   105.0    986    1                
1975-04-22 10   16.4   105.1    986    1                
1975-04-22 13   16.8   105.2    985    2                
1975-04-22 16   17.1   105.3    986    1                
1975-04-22 19   17.3   105.4    987    1                
1975-04-22 22   17.6   105.3    988    1                
1975-04-23 01   18.1   105.5    988    1                
1975-04-23 04   18.6   105.7    989    1                
1975-04-23 07   19.2   105.9    989    1                
1975-04-23 10   19.8   106.0    990    1                
1975-04-23 13   20.3   106.3    991    1                
1975-04-23 16   20.7   106.6    992    1                
1975-04-23 19   21.3   106.7    992    1                
1975-04-23 22   21.8   106.8    993    1                
1975-04-24 01   21.7   106.9    994    1                
1975-04-24 04   22.2   107.1    995    1                
1975-04-24 07   22.6   107.3    996                     
1975-04-24 10   23.0   107.4    997                     
1975-04-24 13   23.4   107.5    999                     
1975-04-24 16   23.9   107.7   1000                     
1975-04-24 19   24.3   107.6   1001                     
1975-04-24 22   24.6   108.1   1002                     
1975-04-25 01   25.0   108.3   1003                     
1975-04-25 04   25.4   108.6   1003                     
1975-04-25 07   25.9   109.0   1003                     
1975-04-25 10   26.2   109.4   1003                     
1975-04-25 13   26.4   109.8   1004                     
1975-04-25 16   26.7   110.3   1004                     
1975-04-25 19   27.0   110.7   1004                     
1975-04-25 22   27.3   111.1   1004                     
1975-04-26 01   27.5   111.5   1005                     
Winds are 10-min average.

Tropical cyclone tracks developed by Michael Bath using data from the Bureau of Meteorology and Google Maps.


[Australian Severe Weather index] [Copyright Notice] [Email Contacts] [Search This Site] [Privacy Policy]
Document: tropical_cyclone_clara.htm Updated: 30 May 2013